createdAt,value
2023-01-11T00:00:21.852Z,96.67
2023-01-11T00:01:21.775Z,96.88
2023-01-11T00:02:21.802Z,96.88
2023-01-11T00:03:21.783Z,96.67
2023-01-11T00:04:21.777Z,96.46
2023-01-11T00:05:21.746Z,96.36
2023-01-11T00:06:21.763Z,96.46
2023-01-11T00:07:21.711Z,96.56
2023-01-11T00:08:21.741Z,96.56
2023-01-11T00:09:21.709Z,96.36
2023-01-11T00:10:21.682Z,96.36
2023-01-11T00:11:21.684Z,96.36
2023-01-11T00:12:21.670Z,96.56
2023-01-11T00:13:21.687Z,96.46
2023-01-11T00:14:21.654Z,96.56
2023-01-11T00:15:21.629Z,96.56
2023-01-11T00:16:21.739Z,96.36
2023-01-11T00:17:21.608Z,96.46
2023-01-11T00:18:21.605Z,96.36
2023-01-11T00:19:21.663Z,96.46
2023-01-11T00:20:21.625Z,96.46
2023-01-11T00:21:21.565Z,96.56
2023-01-11T00:22:21.568Z,96.46
2023-01-11T00:23:21.564Z,96.21
2023-01-11T00:24:21.579Z,96.42
2023-01-11T00:25:21.549Z,96.31
2023-01-11T00:26:21.525Z,96.36
2023-01-11T00:27:21.503Z,96.46
2023-01-11T00:28:21.535Z,96.56
2023-01-11T00:29:21.537Z,96.56
2023-01-11T00:30:21.521Z,96.46
2023-01-11T00:31:21.534Z,96.67
2023-01-11T00:32:21.467Z,96.46
2023-01-11T00:33:21.500Z,96.25
2023-01-11T00:34:21.464Z,96.36
2023-01-11T00:35:21.470Z,96.46
2023-01-11T00:36:21.422Z,96.52
2023-01-11T00:37:21.428Z,96.11
2023-01-11T00:38:21.412Z,96.11
2023-01-11T00:39:21.418Z,96.21
2023-01-11T00:40:21.386Z,96.25
2023-01-11T00:41:21.364Z,96.31
2023-01-11T00:42:21.364Z,96.36
2023-01-11T00:43:21.347Z,96.52
2023-01-11T00:44:21.382Z,96.21
2023-01-11T00:45:21.328Z,96.00
2023-01-11T00:46:21.512Z,96.11
2023-01-11T00:47:21.307Z,95.90
2023-01-11T00:48:21.315Z,95.59
2023-01-11T00:49:21.317Z,95.70
2023-01-11T00:50:21.293Z,95.59
2023-01-11T00:51:21.281Z,95.49
2023-01-11T00:52:21.273Z,95.24
2023-01-11T00:53:21.275Z,95.34
2023-01-11T00:54:21.255Z,95.03
2023-01-11T00:55:21.221Z,95.03
2023-01-11T00:56:21.226Z,95.03
2023-01-11T00:57:21.223Z,95.03
2023-01-11T00:58:21.275Z,94.93
2023-01-11T00:59:21.199Z,94.93
2023-01-11T01:00:21.196Z,94.93
2023-01-11T01:01:21.205Z,94.83
2023-01-11T01:02:21.171Z,94.83
2023-01-11T01:03:21.184Z,94.93
2023-01-11T01:04:21.171Z,94.62
2023-01-11T01:05:21.123Z,94.73
2023-01-11T01:06:21.133Z,94.83
2023-01-11T01:07:21.105Z,94.73
2023-01-11T01:08:21.121Z,94.73
2023-01-11T01:09:21.097Z,94.52
2023-01-11T01:10:21.089Z,94.52
2023-01-11T01:11:21.084Z,94.31
2023-01-11T01:12:21.053Z,94.31
2023-01-11T01:13:21.036Z,94.52
2023-01-11T01:14:21.086Z,94.52
2023-01-11T01:15:21.026Z,94.42
2023-01-11T01:16:21.085Z,94.21
2023-01-11T01:17:21.007Z,94.21
2023-01-11T01:18:21.029Z,94.52
2023-01-11T01:19:20.999Z,94.62
2023-01-11T01:20:21.022Z,94.83
2023-01-11T01:21:20.978Z,94.83
2023-01-11T01:22:20.982Z,94.93
2023-01-11T01:23:20.947Z,95.14
2023-01-11T01:24:20.942Z,95.24
2023-01-11T01:25:20.960Z,95.55
2023-01-11T01:26:20.922Z,95.65
2023-01-11T01:27:20.902Z,95.71
2023-01-11T01:28:20.891Z,95.71
2023-01-11T01:29:20.887Z,95.71
2023-01-11T01:30:20.915Z,95.61
2023-01-11T01:31:20.923Z,95.75
2023-01-11T01:32:20.860Z,96.06
2023-01-11T01:33:20.843Z,96.27
2023-01-11T01:34:20.834Z,96.37
2023-01-11T01:35:20.882Z,96.37
2023-01-11T01:36:20.832Z,96.33
2023-01-11T01:37:20.814Z,96.43
2023-01-11T01:38:20.808Z,96.33
2023-01-11T01:39:20.773Z,96.22
2023-01-11T01:40:20.800Z,96.33
2023-01-11T01:41:20.770Z,96.22
2023-01-11T01:42:20.752Z,96.33
2023-01-11T01:43:20.749Z,96.22
2023-01-11T01:44:20.734Z,96.33
2023-01-11T01:45:20.735Z,96.33
2023-01-11T01:46:20.800Z,96.12
2023-01-11T01:47:20.707Z,96.12
2023-01-11T01:48:20.689Z,96.12
2023-01-11T01:49:20.687Z,96.12
2023-01-11T01:50:20.697Z,95.92
2023-01-11T01:51:20.651Z,96.12
2023-01-11T01:52:20.647Z,96.12
2023-01-11T01:53:20.656Z,96.02
2023-01-11T01:54:20.646Z,95.81
2023-01-11T01:55:20.644Z,95.81
2023-01-11T01:56:20.638Z,95.81
2023-01-11T01:57:20.615Z,95.46
2023-01-11T01:58:20.607Z,95.36
2023-01-11T01:59:20.618Z,95.05
2023-01-11T02:00:20.621Z,94.95
2023-01-11T02:01:20.588Z,94.74
2023-01-11T02:02:20.669Z,94.84
2023-01-11T02:03:20.562Z,94.95
2023-01-11T02:04:20.580Z,94.84
2023-01-11T02:05:20.529Z,94.64
2023-01-11T02:06:20.536Z,94.64
2023-01-11T02:07:20.540Z,94.74
2023-01-11T02:08:20.477Z,94.84
2023-01-11T02:09:20.478Z,94.84
2023-01-11T02:10:20.519Z,94.95
2023-01-11T02:11:20.451Z,95.05
2023-01-11T02:12:20.435Z,95.05
2023-01-11T02:13:20.421Z,95.15
2023-01-11T02:14:20.445Z,95.25
2023-01-11T02:15:20.437Z,95.36
2023-01-11T02:16:20.448Z,95.36
2023-01-11T02:17:20.396Z,95.56
2023-01-11T02:18:20.396Z,95.56
2023-01-11T02:19:20.382Z,95.77
2023-01-11T02:20:20.380Z,95.87
2023-01-11T02:21:20.346Z,95.87
2023-01-11T02:22:20.349Z,95.97
2023-01-11T02:23:20.329Z,96.18
2023-01-11T02:24:20.317Z,96.28
2023-01-11T02:25:20.343Z,96.18
2023-01-11T02:26:20.299Z,96.28
2023-01-11T02:27:20.283Z,96.23
2023-01-11T02:28:20.272Z,96.34
2023-01-11T02:29:20.258Z,96.44
2023-01-11T02:30:20.285Z,96.69
2023-01-11T02:31:20.260Z,96.65
2023-01-11T02:32:20.249Z,96.80
2023-01-11T02:33:20.221Z,97.00
2023-01-11T02:34:20.206Z,97.10
2023-01-11T02:35:20.203Z,97.20
2023-01-11T02:36:20.230Z,97.31
2023-01-11T02:37:20.208Z,97.52
2023-01-11T02:38:20.180Z,97.62
2023-01-11T02:39:20.149Z,97.82
2023-01-11T02:40:20.169Z,98.03
2023-01-11T02:41:20.183Z,98.24
2023-01-11T02:42:20.128Z,98.33
2023-01-11T02:43:20.125Z,98.44
2023-01-11T02:44:20.119Z,98.44
2023-01-11T02:45:20.108Z,98.54
2023-01-11T02:46:20.165Z,98.75
2023-01-11T02:47:20.075Z,98.85
2023-01-11T02:48:20.098Z,99.05
2023-01-11T02:49:20.069Z,99.16
2023-01-11T02:50:20.085Z,99.26
2023-01-11T02:51:20.066Z,99.26
2023-01-11T02:52:20.030Z,99.37
2023-01-11T02:53:20.027Z,99.47
2023-01-11T02:54:20.043Z,99.47
2023-01-11T02:55:20.016Z,99.57
2023-01-11T02:56:20.019Z,99.63
2023-01-11T02:57:19.973Z,99.63
2023-01-11T02:58:20.000Z,99.63
2023-01-11T02:59:19.956Z,99.63
2023-01-11T03:00:19.939Z,99.73
2023-01-11T03:01:20.005Z,99.73
2023-01-11T03:02:19.979Z,99.63
2023-01-11T03:03:19.910Z,99.63
2023-01-11T03:04:19.909Z,99.63
2023-01-11T03:05:19.889Z,99.63
2023-01-11T03:06:19.952Z,99.73
2023-01-11T03:07:19.889Z,99.73
2023-01-11T03:08:19.860Z,99.83
2023-01-11T03:09:19.862Z,99.99
2023-01-11T03:10:19.839Z,99.99
2023-01-11T03:11:19.852Z,99.99
2023-01-11T03:12:26.299Z,99.99
2023-01-11T03:13:19.802Z,99.99
2023-01-11T03:14:19.794Z,99.99
2023-01-11T03:15:19.781Z,99.99
2023-01-11T03:16:19.852Z,0.00
2023-01-11T03:17:19.755Z,0.00
2023-01-11T03:18:19.804Z,0.00
2023-01-11T03:19:19.755Z,0.00
2023-01-11T03:20:19.739Z,0.00
2023-01-11T03:21:19.777Z,0.00
2023-01-11T03:22:19.752Z,0.00
2023-01-11T03:23:19.719Z,0.00
2023-01-11T03:24:19.714Z,0.00
2023-01-11T03:25:19.681Z,0.00
2023-01-11T03:26:19.715Z,0.00
2023-01-11T03:27:19.664Z,0.00
2023-01-11T03:28:19.663Z,0.00
2023-01-11T03:29:19.664Z,0.00
2023-01-11T03:30:19.629Z,0.00
2023-01-11T03:31:19.696Z,0.00
2023-01-11T03:32:19.626Z,0.00
2023-01-11T03:33:19.626Z,0.00
2023-01-11T03:34:19.594Z,0.00
2023-01-11T03:35:19.601Z,0.00
2023-01-11T03:36:19.601Z,0.00
2023-01-11T03:37:19.564Z,0.00
2023-01-11T03:38:19.588Z,0.00
2023-01-11T03:39:19.564Z,0.00
2023-01-11T03:40:19.536Z,0.00
2023-01-11T03:41:19.569Z,0.00
2023-01-11T03:42:19.527Z,0.00
2023-01-11T03:43:19.499Z,0.00
2023-01-11T03:44:19.507Z,0.00
2023-01-11T03:45:19.521Z,0.00
2023-01-11T03:46:19.580Z,0.00
2023-01-11T03:47:19.452Z,0.00
2023-01-11T03:48:19.464Z,99.99
2023-01-11T03:49:19.429Z,99.99
2023-01-11T03:50:19.427Z,99.99
2023-01-11T03:51:19.444Z,99.99
2023-01-11T03:52:19.438Z,99.99
2023-01-11T03:53:19.393Z,99.99
2023-01-11T03:54:19.384Z,99.99
2023-01-11T03:55:19.406Z,99.99
2023-01-11T03:56:19.403Z,99.99
2023-01-11T03:57:19.351Z,99.89
2023-01-11T03:58:19.361Z,99.99
2023-01-11T03:59:19.359Z,99.99
2023-01-11T04:00:19.339Z,99.99
2023-01-11T04:01:19.331Z,99.99
2023-01-11T04:02:19.319Z,99.99
2023-01-11T04:03:19.309Z,99.89
2023-01-11T04:04:19.367Z,99.99
2023-01-11T04:05:19.263Z,99.99
2023-01-11T04:06:19.364Z,99.99
2023-01-11T04:07:19.289Z,99.99
2023-01-11T04:08:19.245Z,99.99
2023-01-11T04:09:19.285Z,99.99
2023-01-11T04:10:19.222Z,99.99
2023-01-11T04:11:19.250Z,99.99
2023-01-11T04:12:19.213Z,99.99
2023-01-11T04:13:19.215Z,99.99
2023-01-11T04:14:19.180Z,99.99
2023-01-11T04:15:19.202Z,99.99
2023-01-11T04:16:19.239Z,99.99
2023-01-11T04:17:19.203Z,99.99
2023-01-11T04:18:19.158Z,99.99
2023-01-11T04:19:19.134Z,99.99
2023-01-11T04:20:19.152Z,99.99
2023-01-11T04:21:19.145Z,99.99
2023-01-11T04:22:19.159Z,99.99
2023-01-11T04:23:19.088Z,99.99
2023-01-11T04:24:19.089Z,99.99
2023-01-11T04:25:19.066Z,99.99
2023-01-11T04:26:19.057Z,99.99
2023-01-11T04:27:19.077Z,99.99
2023-01-11T04:28:19.040Z,99.99
2023-01-11T04:29:19.039Z,99.99
2023-01-11T04:30:19.041Z,99.99
2023-01-11T04:31:19.029Z,99.99
2023-01-11T04:32:19.012Z,99.99
2023-01-11T04:33:19.075Z,99.99
2023-01-11T04:34:18.979Z,99.99
2023-01-11T04:35:18.959Z,99.99
2023-01-11T04:36:18.974Z,99.99
2023-01-11T04:37:18.979Z,99.99
2023-01-11T04:38:18.961Z,99.99
2023-01-11T04:39:18.961Z,99.99
2023-01-11T04:40:18.912Z,99.99
2023-01-11T04:41:18.904Z,99.99
2023-01-11T04:42:18.905Z,99.99
2023-01-11T04:43:18.885Z,99.99
2023-01-11T04:44:18.869Z,99.99
2023-01-11T04:45:18.855Z,99.99
2023-01-11T04:46:18.875Z,99.99
2023-01-11T04:47:18.862Z,99.99
2023-01-11T04:48:18.932Z,99.99
2023-01-11T04:49:18.825Z,99.99
2023-01-11T04:50:18.850Z,99.99
2023-01-11T04:51:18.801Z,99.99
2023-01-11T04:52:18.815Z,99.99
2023-01-11T04:53:18.783Z,99.99
2023-01-11T04:54:18.802Z,99.99
2023-01-11T04:55:18.772Z,99.99
2023-01-11T04:56:18.763Z,99.99
2023-01-11T04:57:18.767Z,99.99
2023-01-11T04:58:18.717Z,99.99
2023-01-11T04:59:18.736Z,99.99
2023-01-11T05:00:18.712Z,99.99
2023-01-11T05:01:18.805Z,99.99
2023-01-11T05:02:18.709Z,99.99
2023-01-11T05:03:18.677Z,99.99
2023-01-11T05:04:18.772Z,99.99
2023-01-11T05:05:18.657Z,99.99
2023-01-11T05:06:18.662Z,99.99
2023-01-11T05:07:18.660Z,99.99
2023-01-11T05:08:18.621Z,99.99
2023-01-11T05:09:18.619Z,99.99
2023-01-11T05:10:20.874Z,99.99
2023-01-11T05:11:18.595Z,99.99
2023-01-11T05:12:18.604Z,99.99
2023-01-11T05:13:18.576Z,99.99
2023-01-11T05:14:18.596Z,99.99
2023-01-11T05:15:18.568Z,99.99
2023-01-11T05:16:18.555Z,99.99
2023-01-11T05:17:18.571Z,99.99
2023-01-11T05:18:18.533Z,99.99
2023-01-11T05:19:18.517Z,99.99
2023-01-11T05:20:18.515Z,99.99
2023-01-11T05:21:18.492Z,99.99
2023-01-11T05:22:18.504Z,99.99
2023-01-11T05:23:18.484Z,99.99
2023-01-11T05:24:18.491Z,99.99
2023-01-11T05:25:18.499Z,99.99
2023-01-11T05:26:18.443Z,99.99
2023-01-11T05:27:18.444Z,99.99
2023-01-11T05:28:18.444Z,99.99
2023-01-11T05:29:18.449Z,99.99
2023-01-11T05:30:18.422Z,99.99
2023-01-11T05:31:18.433Z,99.99
2023-01-11T05:32:18.373Z,99.99
2023-01-11T05:33:18.475Z,99.99
2023-01-11T05:34:18.356Z,99.99
2023-01-11T05:35:18.375Z,99.99
2023-01-11T05:36:18.338Z,99.99
2023-01-11T05:37:18.355Z,99.99
2023-01-11T05:38:18.371Z,99.99
2023-01-11T05:39:18.323Z,99.99
2023-01-11T05:40:18.245Z,99.99
2023-01-11T05:41:18.288Z,99.99
2023-01-11T05:42:18.307Z,99.99
2023-01-11T05:43:18.300Z,99.99
2023-01-11T05:44:18.251Z,99.99
2023-01-11T05:45:18.255Z,99.99
2023-01-11T05:46:18.247Z,99.99
2023-01-11T05:47:18.231Z,99.99
2023-01-11T05:48:18.264Z,99.99
2023-01-11T05:49:18.217Z,99.99
2023-01-11T05:50:18.210Z,99.99
2023-01-11T05:51:18.197Z,99.99
2023-01-11T05:52:18.177Z,99.99
2023-01-11T05:53:18.243Z,99.99
2023-01-11T05:54:18.165Z,99.99
2023-01-11T05:55:18.161Z,99.99
2023-01-11T05:56:18.167Z,99.99
2023-01-11T05:57:18.129Z,99.99
2023-01-11T05:58:18.142Z,99.99
2023-01-11T05:59:18.140Z,99.99
2023-01-11T06:00:18.181Z,99.99
2023-01-11T06:01:18.095Z,99.99
2023-01-11T06:02:18.260Z,99.99
2023-01-11T06:03:18.163Z,99.99
2023-01-11T06:04:18.073Z,99.99
2023-01-11T06:05:18.060Z,99.99
2023-01-11T06:06:24.596Z,99.99
2023-01-11T06:07:18.044Z,99.99
2023-01-11T06:08:25.595Z,99.99
2023-01-11T06:09:17.997Z,99.99
2023-01-11T06:10:18.006Z,99.99
2023-01-11T06:11:17.982Z,99.99
2023-01-11T06:12:17.962Z,99.99
2023-01-11T06:13:18.021Z,99.99
2023-01-11T06:14:17.953Z,99.99
2023-01-11T06:15:17.944Z,99.99
2023-01-11T06:16:17.999Z,99.99
2023-01-11T06:17:17.931Z,99.99
2023-01-11T06:18:17.939Z,99.99
2023-01-11T06:19:17.900Z,99.99
2023-01-11T06:20:17.900Z,99.99
2023-01-11T06:21:17.882Z,99.99
2023-01-11T06:22:17.871Z,99.99
2023-01-11T06:23:18.005Z,99.99
2023-01-11T06:24:17.870Z,99.99
2023-01-11T06:25:17.904Z,99.99
2023-01-11T06:26:17.844Z,99.99
2023-01-11T06:27:17.824Z,99.99
2023-01-11T06:28:17.898Z,99.99
2023-01-11T06:29:17.825Z,99.99
2023-01-11T06:30:17.833Z,99.99
2023-01-11T06:31:18.443Z,99.99
2023-01-11T06:32:17.789Z,99.99
2023-01-11T06:33:17.805Z,99.99
2023-01-11T06:34:17.824Z,99.91
2023-01-11T06:35:17.762Z,99.91
2023-01-11T06:36:17.786Z,99.91
2023-01-11T06:37:17.767Z,99.91
2023-01-11T06:38:17.790Z,99.99
2023-01-11T06:39:17.776Z,99.91
2023-01-11T06:40:17.658Z,99.80
2023-01-11T06:41:17.686Z,99.80
2023-01-11T06:42:17.791Z,99.80
2023-01-11T06:43:17.702Z,99.80
2023-01-11T06:44:17.607Z,99.80
2023-01-11T06:45:17.634Z,99.80
2023-01-11T06:46:17.677Z,99.91
2023-01-11T06:47:17.629Z,99.99
2023-01-11T06:48:17.618Z,99.99
2023-01-11T06:49:17.629Z,99.99
2023-01-11T06:50:17.591Z,99.99
2023-01-11T06:51:17.602Z,99.96
2023-01-11T06:52:17.558Z,99.86
2023-01-11T06:53:17.590Z,99.76
2023-01-11T06:54:17.572Z,99.76
2023-01-11T06:55:17.543Z,99.86
2023-01-11T06:56:17.575Z,99.86
2023-01-11T06:57:17.510Z,99.96
2023-01-11T06:58:17.506Z,99.99
2023-01-11T06:59:17.540Z,99.99
2023-01-11T07:00:17.529Z,99.96
2023-01-11T07:01:17.543Z,99.99
2023-01-11T07:02:18.036Z,99.99
2023-01-11T07:03:17.515Z,99.99
2023-01-11T07:04:17.579Z,99.99
2023-01-11T07:05:19.189Z,99.99
2023-01-11T07:06:17.426Z,99.99
2023-01-11T07:07:17.439Z,99.99
2023-01-11T07:08:17.440Z,99.99
2023-01-11T07:09:17.448Z,99.99
2023-01-11T07:10:17.388Z,99.99
2023-01-11T07:11:17.401Z,99.99
2023-01-11T07:12:17.353Z,99.99
2023-01-11T07:13:17.454Z,99.99
2023-01-11T07:14:17.365Z,99.99
2023-01-11T07:15:17.363Z,99.99
2023-01-11T07:16:17.404Z,99.99
2023-01-11T07:17:17.350Z,99.99
2023-01-11T07:18:17.272Z,99.96
2023-01-11T07:19:17.327Z,99.96
2023-01-11T07:20:17.233Z,99.96
2023-01-11T07:21:17.224Z,99.99
2023-01-11T07:22:17.231Z,99.99
2023-01-11T07:23:17.210Z,99.99
2023-01-11T07:24:17.225Z,99.91
2023-01-11T07:25:17.195Z,99.82
2023-01-11T07:26:17.504Z,99.82
2023-01-11T07:27:17.158Z,99.82
2023-01-11T07:28:17.157Z,99.71
2023-01-11T07:29:17.166Z,99.71
2023-01-11T07:30:17.151Z,99.99
2023-01-11T07:31:17.183Z,99.99
2023-01-11T07:32:17.102Z,99.99
2023-01-11T07:33:17.100Z,99.99
2023-01-11T07:34:17.109Z,99.99
2023-01-11T07:35:17.095Z,99.99
2023-01-11T07:36:17.104Z,99.99
2023-01-11T07:37:28.016Z,99.99
2023-01-11T07:38:17.110Z,99.99
2023-01-11T07:39:17.083Z,99.99
2023-01-11T07:40:17.024Z,99.99
2023-01-11T07:41:17.048Z,99.99
2023-01-11T07:42:16.996Z,99.99
2023-01-11T07:43:17.010Z,99.99
2023-01-11T07:44:16.981Z,99.99
2023-01-11T07:45:17.021Z,99.99
2023-01-11T07:46:17.064Z,99.99
2023-01-11T07:47:16.953Z,99.99
2023-01-11T07:48:16.964Z,99.99
2023-01-11T07:49:16.955Z,99.99
2023-01-11T07:50:16.947Z,99.99
2023-01-11T07:51:16.914Z,99.99
2023-01-11T07:52:23.395Z,99.99
2023-01-11T07:53:16.899Z,99.99
2023-01-11T07:54:16.885Z,99.99
2023-01-11T07:55:16.894Z,99.99
2023-01-11T07:56:16.891Z,99.99
2023-01-11T07:57:16.865Z,99.99
2023-01-11T07:58:16.875Z,99.99
2023-01-11T07:59:16.856Z,99.99
2023-01-11T08:00:16.849Z,99.99
2023-01-11T08:01:16.849Z,99.99
2023-01-11T08:02:16.922Z,99.99
2023-01-11T08:03:17.061Z,99.99
2023-01-11T08:04:16.803Z,99.91
2023-01-11T08:05:16.802Z,99.71
2023-01-11T08:06:16.786Z,99.71
2023-01-11T08:07:16.763Z,99.71
2023-01-11T08:08:16.749Z,99.61
2023-01-11T08:09:16.768Z,99.61
2023-01-11T08:10:16.774Z,99.61
2023-01-11T08:11:16.712Z,99.41
2023-01-11T08:12:16.753Z,99.51
2023-01-11T08:13:16.785Z,99.51
2023-01-11T08:14:16.749Z,99.51
2023-01-11T08:15:16.709Z,99.41
2023-01-11T08:16:16.699Z,99.51
2023-01-11T08:17:16.668Z,99.41
2023-01-11T08:18:16.642Z,99.20
2023-01-11T08:19:16.645Z,99.10
2023-01-11T08:20:16.682Z,98.99
2023-01-11T08:21:16.648Z,98.90
2023-01-11T08:22:16.604Z,98.90
2023-01-11T08:23:16.621Z,98.90
2023-01-11T08:24:16.579Z,98.90
2023-01-11T08:25:16.625Z,98.90
2023-01-11T08:26:16.586Z,98.99
2023-01-11T08:27:16.558Z,98.99
2023-01-11T08:28:16.560Z,98.99
2023-01-11T08:29:16.541Z,98.90
2023-01-11T08:30:16.578Z,98.79
2023-01-11T08:31:16.675Z,98.90
2023-01-11T08:32:16.507Z,98.79
2023-01-11T08:33:16.527Z,98.69
2023-01-11T08:34:16.585Z,98.69
2023-01-11T08:35:16.524Z,98.79
2023-01-11T08:36:16.464Z,98.99
2023-01-11T08:37:16.447Z,98.90
2023-01-11T08:38:16.485Z,98.79
2023-01-11T08:39:16.433Z,98.69
2023-01-11T08:40:16.485Z,98.69
2023-01-11T08:41:16.451Z,98.58
2023-01-11T08:42:16.397Z,98.49
2023-01-11T08:43:16.408Z,98.49
2023-01-11T08:44:22.329Z,98.58
2023-01-11T08:45:16.413Z,98.49
2023-01-11T08:46:16.444Z,98.49
2023-01-11T08:47:16.336Z,98.49
2023-01-11T08:48:16.365Z,98.38
2023-01-11T08:49:16.342Z,98.38
2023-01-11T08:50:16.350Z,98.49
2023-01-11T08:51:16.294Z,98.63
2023-01-11T08:52:16.303Z,98.74
2023-01-11T08:53:16.282Z,98.83
2023-01-11T08:54:16.295Z,98.63
2023-01-11T08:55:16.315Z,98.63
2023-01-11T08:56:16.263Z,98.74
2023-01-11T08:57:16.291Z,98.74
2023-01-11T08:58:16.238Z,98.83
2023-01-11T08:59:16.227Z,98.63
2023-01-11T09:00:16.260Z,98.74
2023-01-11T09:01:16.316Z,98.94
2023-01-11T09:02:16.216Z,98.74
2023-01-11T09:03:16.206Z,98.83
2023-01-11T09:04:24.750Z,98.94
2023-01-11T09:05:18.193Z,98.83
2023-01-11T09:06:16.153Z,98.83
2023-01-11T09:07:16.167Z,98.63
2023-01-11T09:08:16.139Z,98.43
2023-01-11T09:09:16.148Z,98.43
2023-01-11T09:10:16.130Z,98.33
2023-01-11T09:11:16.112Z,98.33
2023-01-11T09:12:16.102Z,98.33
2023-01-11T09:13:16.087Z,98.53
2023-01-11T09:14:16.123Z,98.43
2023-01-11T09:15:16.065Z,98.22
2023-01-11T09:16:16.120Z,98.02
2023-01-11T09:17:16.072Z,98.02
2023-01-11T09:18:16.039Z,97.91
2023-01-11T09:19:16.029Z,97.81
2023-01-11T09:20:16.012Z,97.81
2023-01-11T09:21:16.044Z,97.81
2023-01-11T09:22:16.044Z,97.71
2023-01-11T09:23:16.007Z,97.96
2023-01-11T09:24:15.966Z,98.27
2023-01-11T09:25:15.963Z,98.07
2023-01-11T09:26:15.976Z,98.07
2023-01-11T09:27:16.040Z,97.86
2023-01-11T09:28:15.950Z,97.91
2023-01-11T09:29:16.002Z,97.91
2023-01-11T09:30:15.975Z,97.91
2023-01-11T09:31:16.094Z,98.02
2023-01-11T09:32:15.910Z,98.02
2023-01-11T09:33:15.875Z,97.81
2023-01-11T09:34:15.872Z,97.71
2023-01-11T09:35:15.904Z,97.45
2023-01-11T09:36:15.876Z,96.94
2023-01-11T09:37:15.855Z,96.94
2023-01-11T09:38:15.838Z,96.94
2023-01-11T09:39:15.827Z,96.94
2023-01-11T09:40:15.836Z,96.73
2023-01-11T09:41:15.836Z,96.83
2023-01-11T09:42:15.781Z,96.94
2023-01-11T09:43:15.784Z,96.83
2023-01-11T09:44:15.792Z,96.94
2023-01-11T09:45:15.766Z,96.94
2023-01-11T09:46:15.801Z,96.63
2023-01-11T09:47:15.757Z,96.42
2023-01-11T09:48:15.732Z,96.01
2023-01-11T09:49:15.708Z,96.42
2023-01-11T09:50:15.721Z,95.81
2023-01-11T09:51:15.726Z,95.91
2023-01-11T09:52:15.691Z,95.91
2023-01-11T09:53:15.669Z,96.12
2023-01-11T09:54:15.721Z,96.12
2023-01-11T09:55:15.672Z,95.70
2023-01-11T09:56:15.964Z,95.91
2023-01-11T09:57:15.699Z,96.01
2023-01-11T09:58:15.628Z,95.61
2023-01-11T09:59:15.639Z,95.50
2023-01-11T10:00:15.607Z,95.70
2023-01-11T10:01:15.723Z,95.81
2023-01-11T10:02:16.314Z,95.61
2023-01-11T10:03:15.581Z,95.09
2023-01-11T10:04:15.574Z,95.29
2023-01-11T10:05:15.628Z,95.34
2023-01-11T10:06:15.584Z,95.44
2023-01-11T10:07:15.544Z,95.14
2023-01-11T10:18:21.328Z,95.24
2023-01-11T10:19:04.292Z,95.44
2023-01-11T10:19:37.501Z,94.52
2023-01-11T10:19:49.115Z,94.73
2023-01-11T10:20:49.005Z,94.73
2023-01-11T10:21:49.050Z,94.93
2023-01-11T10:22:48.979Z,94.83
2023-01-11T10:23:49.218Z,94.52
2023-01-11T10:24:48.969Z,94.52
2023-01-11T10:25:48.947Z,94.83
2023-01-11T10:26:49.044Z,94.42
2023-01-11T10:27:48.928Z,94.73
2023-01-11T10:28:48.900Z,94.73
2023-01-11T10:29:48.903Z,94.52
2023-01-11T10:30:48.896Z,94.11
2023-01-11T10:31:49.125Z,94.11
2023-01-11T10:32:48.872Z,94.01
2023-01-11T10:33:48.976Z,94.21
2023-01-11T10:34:48.879Z,93.96
2023-01-11T10:35:48.849Z,93.90
2023-01-11T10:36:48.846Z,93.86
2023-01-11T10:37:48.824Z,93.76
2023-01-11T10:38:48.862Z,93.76
2023-01-11T10:39:48.803Z,93.39
2023-01-11T10:40:48.823Z,93.19
2023-01-11T10:41:48.900Z,93.19
2023-01-11T10:42:48.777Z,92.98
2023-01-11T10:43:48.786Z,93.08
2023-01-11T10:44:48.769Z,92.88
2023-01-11T10:45:48.798Z,92.78
2023-01-11T10:46:48.759Z,92.88
2023-01-11T10:47:48.716Z,92.98
2023-01-11T10:48:48.702Z,92.78
2023-01-11T10:49:48.707Z,92.78
2023-01-11T10:50:48.687Z,92.88
2023-01-11T10:51:48.734Z,92.27
2023-01-11T10:52:48.684Z,92.47
2023-01-11T10:53:48.694Z,92.16
2023-01-11T10:54:50.158Z,92.16
2023-01-11T10:55:48.655Z,92.27
2023-01-11T10:57:03.225Z,92.21
2023-01-11T10:57:59.989Z,92.41
2023-01-11T10:58:48.608Z,92.10
2023-01-11T10:59:48.606Z,91.49
2023-01-11T11:00:48.651Z,91.80
2023-01-11T11:01:48.629Z,91.59
2023-01-11T11:02:48.637Z,91.49
2023-01-11T11:03:48.599Z,91.90
2023-01-11T11:04:48.566Z,92.00
2023-01-11T11:05:48.551Z,92.00
2023-01-11T11:06:48.521Z,91.86
2023-01-11T11:07:48.535Z,91.80
2023-01-11T11:08:48.526Z,92.36
2023-01-11T11:09:48.512Z,92.36
2023-01-11T11:10:48.492Z,92.47
2023-01-11T11:11:48.476Z,92.27
2023-01-11T11:12:48.482Z,91.55
2023-01-11T11:13:48.494Z,91.44
2023-01-11T11:14:48.443Z,91.75
2023-01-11T11:15:48.451Z,91.55
2023-01-11T11:16:48.424Z,91.65
2023-01-11T11:17:48.464Z,91.55
2023-01-11T11:18:48.412Z,91.55
2023-01-11T11:19:48.446Z,91.96
2023-01-11T11:20:48.381Z,91.65
2023-01-11T11:21:48.394Z,91.86
2023-01-11T11:22:48.390Z,92.06
2023-01-11T11:23:48.368Z,91.24
2023-01-11T11:24:48.360Z,91.55
2023-01-11T11:25:54.844Z,91.86
2023-01-11T11:26:48.364Z,91.44
2023-01-11T11:27:48.331Z,91.75
2023-01-11T11:28:48.309Z,91.96
2023-01-11T11:29:48.294Z,92.32
2023-01-11T11:30:48.295Z,91.71
2023-01-11T11:31:48.423Z,91.20
2023-01-11T11:32:48.284Z,91.24
2023-01-11T11:33:48.278Z,89.90
2023-01-11T11:34:48.264Z,89.70
2023-01-11T11:35:48.257Z,89.29
2023-01-11T11:36:48.231Z,88.68
2023-01-11T11:37:48.241Z,87.85
2023-01-11T11:38:48.207Z,88.17
2023-01-11T11:39:48.212Z,87.96
2023-01-11T11:40:48.194Z,88.47
2023-01-11T11:41:48.168Z,88.78
2023-01-11T11:42:48.192Z,89.29
2023-01-11T11:43:48.162Z,88.27
2023-01-11T11:44:48.138Z,86.52
2023-01-11T11:45:48.156Z,85.19
2023-01-11T11:46:48.141Z,85.91
2023-01-11T11:47:48.137Z,86.42
2023-01-11T11:48:48.110Z,86.15
2023-01-11T11:49:48.092Z,85.44
2023-01-11T11:50:48.085Z,86.05
2023-01-11T11:51:48.131Z,85.64
2023-01-11T11:52:48.088Z,85.95
2023-01-11T11:53:48.088Z,86.46
2023-01-11T11:54:48.054Z,86.66
2023-01-11T11:55:48.051Z,86.57
2023-01-11T11:56:48.015Z,86.77
2023-01-11T11:57:48.056Z,86.77
2023-01-11T11:58:48.030Z,86.87
2023-01-11T11:59:47.986Z,86.66
2023-01-11T12:00:47.994Z,86.77
2023-01-11T12:01:48.037Z,86.87
2023-01-11T12:02:48.004Z,85.33
2023-01-11T12:03:47.962Z,84.72
2023-01-11T12:04:47.987Z,84.92
2023-01-11T12:05:47.941Z,84.82
2023-01-11T12:06:49.240Z,85.64
2023-01-11T12:07:54.609Z,85.64
2023-01-11T12:08:47.906Z,85.74
2023-01-11T12:09:48.035Z,85.95
2023-01-11T12:10:47.895Z,85.23
2023-01-11T12:11:47.892Z,85.03
2023-01-11T12:12:47.877Z,84.72
2023-01-11T12:13:47.866Z,84.61
2023-01-11T12:14:47.876Z,84.72
2023-01-11T12:15:47.852Z,85.74
2023-01-11T12:16:47.880Z,84.72
2023-01-11T12:17:47.838Z,85.23
2023-01-11T12:18:47.844Z,85.64
2023-01-11T12:19:47.812Z,85.64
2023-01-11T12:20:47.776Z,85.30
2023-01-11T12:21:47.774Z,85.60
2023-01-11T12:22:47.748Z,85.91
2023-01-11T12:23:47.830Z,85.60
2023-01-11T12:24:47.743Z,85.80
2023-01-11T12:25:47.724Z,85.19
2023-01-11T12:26:47.807Z,83.14
2023-01-11T12:27:47.725Z,82.73
2023-01-11T12:28:47.718Z,83.34
2023-01-11T12:29:47.693Z,83.45
2023-01-11T12:30:47.761Z,82.93
2023-01-11T12:31:47.760Z,82.53
2023-01-11T12:32:47.644Z,82.42
2023-01-11T12:33:47.673Z,82.15
2023-01-11T12:34:47.642Z,83.39
2023-01-11T12:35:47.664Z,82.97
2023-01-11T12:36:47.612Z,83.59
2023-01-11T12:37:47.604Z,83.18
2023-01-11T12:38:47.670Z,83.80
2023-01-11T12:39:47.584Z,83.80
2023-01-11T12:40:47.668Z,84.10
2023-01-11T12:41:47.580Z,84.41
2023-01-11T12:42:54.054Z,84.31
2023-01-11T12:43:47.564Z,84.82
2023-01-11T12:44:47.599Z,84.37
2023-01-11T12:45:47.610Z,84.17
2023-01-11T12:46:47.516Z,81.91
2023-01-11T12:47:47.507Z,81.81
2023-01-11T12:48:47.505Z,82.53
2023-01-11T12:49:47.483Z,82.73
2023-01-11T12:50:47.469Z,82.01
2023-01-11T12:51:47.471Z,81.71
2023-01-11T12:52:47.503Z,81.60
2023-01-11T12:53:47.474Z,81.60
2023-01-11T12:54:47.449Z,81.50
2023-01-11T12:55:47.439Z,82.42
2023-01-11T12:56:47.413Z,82.32
2023-01-11T12:57:47.440Z,82.93
2023-01-11T12:58:47.419Z,82.69
2023-01-11T12:59:47.369Z,82.79
2023-01-11T13:00:47.373Z,83.41
2023-01-11T13:01:47.459Z,82.28